Time;durP1;ratioP1;P1;durP2;ratioP2;P2;SDS_P1;SDS_P2;PMS_P1;PMS_P2;Temp;Humidity;BMP_temperature;BMP_pressure;BME280_temperature;BME280_humidity;BME280_pressure;Samples;Min_cycle;Max_cycle;Signal;HPM_P1;HPM_P2
2021/07/13 00:00:39;;;;;;;21.30;19.10;;;24.80;99.90;;;;;;5128322;27;20278;-67
2021/07/13 00:03:06;;;;;;;20.47;18.37;;;24.80;99.90;;;;;;5108824;27;20185;-63
2021/07/13 00:05:33;;;;;;;22.60;20.30;;;24.70;99.90;;;;;;5128789;27;20565;-62
2021/07/13 00:07:58;;;;;;;21.60;19.40;;;24.70;99.90;;;;;;5126129;27;20489;-62
2021/07/13 00:10:27;;;;;;;20.63;18.63;;;24.60;99.90;;;;;;5128955;27;20428;-62
2021/07/13 00:12:57;;;;;;;21.63;19.40;;;24.60;99.90;;;;;;5125074;27;20183;-65
2021/07/13 00:15:35;;;;;;;23.67;20.17;;;24.60;99.90;;;;;;5130084;27;20424;-63
2021/07/13 00:18:02;;;;;;;21.63;19.43;;;24.50;99.90;;;;;;5126387;27;20433;-65
2021/07/13 00:20:28;;;;;;;21.73;19.60;;;24.40;99.90;;;;;;5110880;28;20440;-65
2021/07/13 00:22:54;;;;;;;23.63;21.13;;;24.40;99.90;;;;;;5125524;27;20508;-66
2021/07/13 00:25:21;;;;;;;23.33;21.10;;;24.40;99.90;;;;;;5130170;27;20469;-66
2021/07/13 00:27:47;;;;;;;22.30;20.00;;;24.40;99.90;;;;;;5124215;28;20430;-63
2021/07/13 00:30:16;;;;;;;21.70;19.43;;;24.30;99.90;;;;;;5131133;28;20475;-65
2021/07/13 00:32:44;;;;;;;21.00;18.97;;;24.30;99.90;;;;;;5105247;28;20427;-65
2021/07/13 00:35:10;;;;;;;22.77;19.00;;;24.30;99.90;;;;;;5133767;27;20483;-65
2021/07/13 00:37:37;;;;;;;21.87;19.63;;;24.20;99.90;;;;;;5134382;28;20771;-65
2021/07/13 00:40:06;;;;;;;22.23;20.03;;;24.20;99.90;;;;;;5132364;28;20502;-63
2021/07/13 00:42:32;;;;;;;21.63;19.33;;;24.20;99.90;;;;;;5122172;28;20477;-63
2021/07/13 00:44:57;;;;;;;20.90;18.67;;;24.20;99.90;;;;;;5133036;28;20460;-65
2021/07/13 00:47:25;;;;;;;21.23;18.93;;;24.10;99.90;;;;;;5120903;28;20255;-63
2021/07/13 00:49:51;;;;;;;22.80;18.87;;;24.10;99.90;;;;;;5115644;28;20262;-65
2021/07/13 00:52:16;;;;;;;23.07;20.57;;;24.10;99.90;;;;;;5101379;28;20428;-63
2021/07/13 00:54:43;;;;;;;21.57;19.27;;;24.00;99.90;;;;;;5115874;28;20181;-65
2021/07/13 00:57:10;;;;;;;23.20;20.73;;;24.00;99.90;;;;;;5119446;28;20184;-65
2021/07/13 00:59:36;;;;;;;23.80;21.17;;;24.00;99.90;;;;;;5134287;28;20471;-65
2021/07/13 01:02:03;;;;;;;25.93;21.87;;;24.00;99.90;;;;;;5119085;28;20442;-62
2021/07/13 01:04:29;;;;;;;25.23;22.53;;;23.90;99.90;;;;;;5134114;28;20471;-66
2021/07/13 01:07:00;;;;;;;23.40;21.07;;;23.90;99.90;;;;;;5119174;28;20420;-63
2021/07/13 01:09:54;;;;;;;26.87;22.60;;;23.90;99.90;;;;;;5134148;28;20515;-63
2021/07/13 01:12:43;;;;;;;24.47;21.37;;;23.90;99.90;;;;;;5101690;28;20425;-63
2021/07/13 01:15:10;;;;;;;22.87;20.70;;;23.80;99.90;;;;;;5131262;28;20440;-67
2021/07/13 01:17:43;;;;;;;26.40;23.57;;;23.80;99.90;;;;;;5103935;28;20778;-65
2021/07/13 01:20:39;;;;;;;25.13;22.53;;;23.80;99.90;;;;;;5133666;28;20476;-62
2021/07/13 01:23:20;;;;;;;26.03;22.60;;;23.70;99.90;;;;;;5136175;27;20427;-65
2021/07/13 01:25:56;;;;;;;29.50;23.67;;;23.70;99.90;;;;;;5129867;27;20510;-65
2021/07/13 01:28:23;;;;;;;26.60;23.27;;;23.70;99.90;;;;;;5132740;27;20819;-65
2021/07/13 01:31:02;;;;;;;24.53;21.93;;;23.60;99.90;;;;;;5129305;27;20438;-63
2021/07/13 01:33:29;;;;;;;24.57;22.03;;;23.60;99.90;;;;;;5133528;27;20498;-66
2021/07/13 01:36:15;;;;;;;25.50;22.67;;;23.60;99.90;;;;;;5109987;28;20436;-65
2021/07/13 01:38:42;;;;;;;25.60;22.03;;;23.60;99.90;;;;;;5135527;27;20430;-63
2021/07/13 01:41:12;;;;;;;25.60;22.73;;;23.50;99.90;;;;;;5137378;27;20817;-65
2021/07/13 01:43:40;;;;;;;24.77;22.10;;;23.50;99.90;;;;;;5137755;27;20969;-63
2021/07/13 01:46:12;;;;;;;25.20;22.50;;;23.50;99.90;;;;;;5108036;28;20488;-63
2021/07/13 01:48:38;;;;;;;24.40;21.80;;;23.50;99.90;;;;;;5134290;27;20419;-65
2021/07/13 01:51:05;;;;;;;26.10;21.80;;;23.50;99.90;;;;;;5137026;27;20440;-63
2021/07/13 01:53:32;;;;;;;27.70;23.60;;;23.40;99.90;;;;;;5137467;27;20896;-67
2021/07/13 01:55:58;;;;;;;28.63;23.50;;;23.40;99.90;;;;;;5136804;27;20847;-63
2021/07/13 01:58:27;;;;;;;26.80;23.90;;;23.40;99.90;;;;;;5118360;27;21001;-65
2021/07/13 02:00:57;;;;;;;26.47;23.77;;;23.30;99.90;;;;;;5128260;27;20428;-63
2021/07/13 02:03:25;;;;;;;26.60;23.77;;;23.30;99.90;;;;;;5132284;27;20471;-62
2021/07/13 02:05:52;;;;;;;25.57;22.87;;;23.30;99.90;;;;;;5128411;27;20475;-62
2021/07/13 02:08:20;;;;;;;25.53;22.93;;;23.30;99.90;;;;;;5117494;27;20428;-63
2021/07/13 02:10:46;;;;;;;27.47;24.50;;;23.30;99.90;;;;;;5123841;27;20442;-65
2021/07/13 02:13:13;;;;;;;29.00;24.93;;;23.30;99.90;;;;;;5136577;27;20927;-65
2021/07/13 02:15:39;;;;;;;25.33;22.67;;;23.30;99.90;;;;;;5130048;27;20742;-65
2021/07/13 02:18:05;;;;;;;25.43;22.73;;;23.20;99.90;;;;;;5129094;27;20521;-65
2021/07/13 02:20:31;;;;;;;29.17;25.10;;;23.20;99.90;;;;;;5131192;27;20463;-67
2021/07/13 02:22:56;;;;;;;32.43;25.00;;;23.20;99.90;;;;;;5128050;27;20178;-65
2021/07/13 02:25:22;;;;;;;27.13;24.23;;;23.20;99.90;;;;;;5132155;27;20479;-65
2021/07/13 02:28:15;;;;;;;30.33;24.47;;;23.20;99.90;;;;;;5126280;27;20704;-65
2021/07/13 02:30:44;;;;;;;30.00;24.40;;;23.20;99.90;;;;;;5136306;27;20239;-65
2021/07/13 02:33:23;;;;;;;26.87;24.03;;;23.20;99.90;;;;;;5136290;27;20518;-62
2021/07/13 02:35:52;;;;;;;28.87;24.33;;;23.20;99.90;;;;;;5127692;27;20523;-65
2021/07/13 02:38:20;;;;;;;26.90;24.03;;;23.20;99.90;;;;;;5112117;27;20433;-65
2021/07/13 02:40:47;;;;;;;29.23;26.20;;;23.10;99.90;;;;;;5128682;27;20948;-63
2021/07/13 02:43:13;;;;;;;27.10;24.30;;;23.10;99.90;;;;;;5111483;27;20419;-63
2021/07/13 02:45:41;;;;;;;28.17;24.50;;;23.10;99.90;;;;;;5110953;28;20957;-65
2021/07/13 02:48:07;;;;;;;28.43;24.70;;;23.10;99.90;;;;;;5110226;27;20437;-65
2021/07/13 02:50:33;;;;;;;27.67;24.73;;;23.10;99.90;;;;;;5130348;27;20841;-62
2021/07/13 02:52:59;;;;;;;26.37;23.20;;;23.10;99.90;;;;;;5127302;27;20422;-65
2021/07/13 02:55:25;;;;;;;29.63;25.40;;;23.10;99.90;;;;;;5135894;27;20739;-65
2021/07/13 02:57:53;;;;;;;27.20;24.40;;;23.20;99.90;;;;;;5117299;27;20450;-65
2021/07/13 03:00:21;;;;;;;27.97;25.03;;;23.20;99.90;;;;;;5117246;27;20455;-65
2021/07/13 03:02:48;;;;;;;31.07;27.00;;;23.10;99.90;;;;;;5135942;27;20502;-65
2021/07/13 03:05:17;;;;;;;30.83;26.27;;;23.10;99.90;;;;;;5132566;27;20529;-62
2021/07/13 03:07:44;;;;;;;28.70;25.80;;;23.10;99.90;;;;;;5125003;27;20423;-66
2021/07/13 03:10:11;;;;;;;31.03;25.53;;;23.10;99.90;;;;;;5132993;27;20431;-63
2021/07/13 03:12:37;;;;;;;28.43;25.50;;;23.10;99.90;;;;;;5124117;27;20415;-65
2021/07/13 03:15:04;;;;;;;29.13;25.93;;;23.00;99.90;;;;;;5134024;27;20432;-62
2021/07/13 03:17:30;;;;;;;29.10;26.00;;;23.00;99.90;;;;;;5122778;27;20228;-67
2021/07/13 03:19:55;;;;;;;28.83;24.77;;;23.00;99.90;;;;;;5116430;27;20920;-63
2021/07/13 03:22:31;;;;;;;31.50;26.70;;;23.00;99.90;;;;;;5121520;27;20179;-65
2021/07/13 03:25:00;;;;;;;28.10;25.10;;;23.00;99.90;;;;;;5116124;27;20635;-65
2021/07/13 03:27:26;;;;;;;26.80;24.00;;;23.00;99.90;;;;;;5122055;27;20415;-62
2021/07/13 03:29:53;;;;;;;27.93;24.70;;;23.10;99.90;;;;;;5116681;27;20827;-63
2021/07/13 03:32:20;;;;;;;27.73;24.67;;;23.10;99.90;;;;;;5120993;27;20426;-62
2021/07/13 03:34:47;;;;;;;29.20;26.03;;;23.10;99.90;;;;;;5135287;27;20897;-62
2021/07/13 03:37:13;;;;;;;33.73;26.70;;;23.10;99.90;;;;;;5120616;27;20443;-63
2021/07/13 03:39:39;;;;;;;28.90;25.20;;;23.10;99.90;;;;;;5135209;27;20771;-65
2021/07/13 03:42:04;;;;;;;30.37;25.70;;;23.10;99.90;;;;;;5120294;27;20415;-62
2021/07/13 03:44:30;;;;;;;32.33;25.40;;;23.10;99.90;;;;;;5135059;27;20206;-63
2021/07/13 03:46:56;;;;;;;28.30;24.60;;;23.10;99.90;;;;;;5134300;27;20222;-65
2021/07/13 03:49:24;;;;;;;27.90;24.90;;;23.10;99.90;;;;;;5134180;27;20537;-66
2021/07/13 03:51:50;;;;;;;29.47;24.90;;;23.20;99.90;;;;;;5134636;27;20411;-63
2021/07/13 03:54:18;;;;;;;26.30;23.60;;;23.20;99.90;;;;;;5116514;27;20430;-63
2021/07/13 03:56:45;;;;;;;30.53;24.67;;;23.30;99.90;;;;;;5134747;27;20466;-65
2021/07/13 03:59:11;;;;;;;28.67;24.43;;;23.30;99.90;;;;;;5134985;27;20454;-65
2021/07/13 04:01:37;;;;;;;28.17;24.50;;;23.30;99.90;;;;;;5116267;27;20438;-63
2021/07/13 04:04:04;;;;;;;26.83;24.00;;;23.40;99.90;;;;;;5135239;27;20422;-66
2021/07/13 04:06:30;;;;;;;31.60;23.70;;;23.40;99.90;;;;;;5134857;27;20248;-65
2021/07/13 04:08:56;;;;;;;27.37;24.47;;;23.50;99.90;;;;;;5134606;27;20427;-65
2021/07/13 04:11:21;;;;;;;25.73;22.33;;;23.50;99.90;;;;;;5134797;27;20419;-63
2021/07/13 04:13:47;;;;;;;28.00;24.30;;;23.50;99.90;;;;;;5116508;28;20244;-63
2021/07/13 04:16:13;;;;;;;27.20;24.40;;;23.50;99.90;;;;;;5116281;27;20199;-62
2021/07/13 04:18:38;;;;;;;27.57;24.77;;;23.50;99.90;;;;;;5134898;27;20210;-66
2021/07/13 04:21:06;;;;;;;27.67;24.70;;;23.60;99.90;;;;;;5116229;27;20195;-63
2021/07/13 04:23:32;;;;;;;26.17;23.33;;;23.60;99.90;;;;;;5116177;27;20431;-63
2021/07/13 04:25:58;;;;;;;30.00;24.97;;;23.60;99.90;;;;;;5115979;28;20483;-62
2021/07/13 04:28:26;;;;;;;27.93;25.00;;;23.70;99.90;;;;;;5134682;27;20437;-63
2021/07/13 04:30:52;;;;;;;30.67;27.48;;;23.70;99.90;;;;;;5114658;28;20753;-65
2021/07/13 04:33:18;;;;;;;29.70;26.60;;;23.80;99.90;;;;;;5134677;28;20188;-65
2021/07/13 04:35:44;;;;;;;31.00;26.07;;;23.90;99.90;;;;;;5134294;28;20814;-65
2021/07/13 04:38:09;;;;;;;32.57;26.30;;;24.00;99.90;;;;;;5134572;28;20191;-65
2021/07/13 04:40:35;;;;;;;29.27;24.50;;;24.00;99.90;;;;;;5133743;28;20276;-65
2021/07/13 04:43:00;;;;;;;29.10;26.00;;;24.10;99.90;;;;;;5134469;28;20184;-65
2021/07/13 04:45:26;;;;;;;26.67;23.80;;;24.10;99.90;;;;;;5134457;28;20220;-63
2021/07/13 04:47:52;;;;;;;28.03;24.73;;;24.10;99.90;;;;;;5115984;28;20215;-66
2021/07/13 04:50:17;;;;;;;27.07;24.00;;;24.20;99.90;;;;;;5134468;28;20570;-63
2021/07/13 04:52:43;;;;;;;27.10;24.30;;;24.20;99.90;;;;;;5134402;28;20188;-65
2021/07/13 04:55:09;;;;;;;26.10;23.40;;;24.20;99.90;;;;;;5134169;28;20201;-66
2021/07/13 04:57:34;;;;;;;29.50;26.30;;;24.30;99.90;;;;;;5133112;27;20280;-63
2021/07/13 05:00:00;;;;;;;25.97;23.30;;;24.30;99.90;;;;;;5119830;27;20565;-63
2021/07/13 05:02:25;;;;;;;26.47;23.80;;;24.40;99.90;;;;;;5118423;27;20674;-66
2021/07/13 05:04:51;;;;;;;25.17;22.60;;;24.40;99.90;;;;;;5118645;27;20421;-65
2021/07/13 05:07:17;;;;;;;24.70;22.27;;;24.50;99.90;;;;;;5137274;27;20184;-63
2021/07/13 05:09:42;;;;;;;24.00;21.50;;;24.60;99.90;;;;;;5137222;27;20547;-66
2021/07/13 05:12:08;;;;;;;25.80;22.70;;;24.60;99.90;;;;;;5117446;27;20186;-67
2021/07/13 05:14:35;;;;;;;24.53;21.83;;;24.70;99.90;;;;;;5137816;27;20524;-63
2021/07/13 05:17:02;;;;;;;24.00;21.60;;;24.70;99.90;;;;;;5136943;27;20836;-65
2021/07/13 05:19:30;;;;;;;25.57;21.60;;;24.80;99.90;;;;;;5137301;27;20770;-63
2021/07/13 05:21:59;;;;;;;26.43;23.33;;;24.80;99.90;;;;;;5118600;27;20977;-63
2021/07/13 05:24:25;;;;;;;26.47;23.77;;;24.80;99.90;;;;;;5137710;27;21000;-62
2021/07/13 05:26:51;;;;;;;26.07;23.53;;;24.90;99.90;;;;;;5118893;27;20513;-66
2021/07/13 05:29:17;;;;;;;25.97;23.27;;;25.00;99.90;;;;;;5137919;27;20182;-66
2021/07/13 05:31:44;;;;;;;25.40;22.70;;;25.00;99.90;;;;;;5137222;27;20877;-63
2021/07/13 05:34:09;;;;;;;23.67;21.37;;;25.10;99.90;;;;;;5137670;27;20778;-63
2021/07/13 05:36:35;;;;;;;22.47;20.17;;;25.20;99.90;;;;;;5136099;27;20450;-63
2021/07/13 05:39:02;;;;;;;24.73;22.10;;;25.30;99.90;;;;;;5135588;27;20180;-65
2021/07/13 05:41:28;;;;;;;22.73;20.53;;;25.30;99.90;;;;;;5117017;27;20229;-63
2021/07/13 05:43:55;;;;;;;25.50;22.80;;;25.40;99.90;;;;;;5136627;27;20416;-63
2021/07/13 05:46:21;;;;;;;24.23;21.80;;;25.40;99.90;;;;;;5130013;27;21107;-63
2021/07/13 05:48:47;;;;;;;23.20;20.90;;;25.50;99.90;;;;;;5135781;27;20465;-62
2021/07/13 05:51:13;;;;;;;22.63;20.27;;;25.60;99.90;;;;;;5133271;27;20985;-63
2021/07/13 05:53:38;;;;;;;22.77;20.37;;;25.70;99.90;;;;;;5133686;27;20202;-66
2021/07/13 05:56:05;;;;;;;22.23;19.70;;;25.80;99.90;;;;;;5115631;27;20446;-66
2021/07/13 05:58:30;;;;;;;20.37;18.30;;;25.80;99.90;;;;;;5127890;27;20223;-63
2021/07/13 06:00:56;;;;;;;21.27;19.13;;;25.90;99.90;;;;;;5128380;27;20498;-62
2021/07/13 06:03:21;;;;;;;23.17;18.33;;;26.00;99.90;;;;;;5131221;27;20182;-63
2021/07/13 06:05:47;;;;;;;19.83;17.07;;;26.10;99.90;;;;;;5132223;27;20226;-66
2021/07/13 06:08:13;;;;;;;23.00;18.63;;;26.20;99.90;;;;;;5125831;27;20213;-63
2021/07/13 06:10:38;;;;;;;22.90;20.27;;;26.30;99.90;;;;;;5132346;27;20207;-63
2021/07/13 06:13:04;;;;;;;20.97;18.77;;;26.30;99.90;;;;;;5123132;27;20262;-66
2021/07/13 06:15:30;;;;;;;20.07;18.23;;;26.50;99.90;;;;;;5104242;27;20203;-63
2021/07/13 06:17:55;;;;;;;20.57;18.53;;;26.50;99.90;;;;;;5126314;27;20245;-67
2021/07/13 06:20:21;;;;;;;19.80;18.00;;;26.60;99.90;;;;;;5101153;27;20247;-67
2021/07/13 06:22:47;;;;;;;20.50;18.47;;;26.70;99.90;;;;;;5121141;27;20186;-63
2021/07/13 06:25:13;;;;;;;20.10;18.10;;;26.80;99.90;;;;;;5120172;27;20215;-66
2021/07/13 06:27:38;;;;;;;18.67;16.87;;;26.90;99.90;;;;;;5119450;27;20198;-68
2021/07/13 06:30:05;;;;;;;18.20;16.30;;;27.00;99.90;;;;;;5120381;27;20944;-63
2021/07/13 06:32:31;;;;;;;18.83;16.93;;;27.10;99.90;;;;;;5101238;27;20283;-66
2021/07/13 06:34:57;;;;;;;18.77;16.77;;;27.20;99.90;;;;;;5114539;27;21026;-63
2021/07/13 06:37:24;;;;;;;18.70;17.00;;;27.30;99.90;;;;;;5121538;27;20423;-65
2021/07/13 06:39:50;;;;;;;18.27;16.57;;;27.40;99.90;;;;;;5118178;27;20192;-63
2021/07/13 06:42:15;;;;;;;17.43;15.83;;;27.50;99.90;;;;;;5115185;27;20458;-63
2021/07/13 06:44:41;;;;;;;17.60;15.80;;;27.60;99.90;;;;;;5113843;27;21039;-66
2021/07/13 06:47:07;;;;;;;17.97;16.07;;;27.70;99.90;;;;;;5101894;27;21312;-63
2021/07/13 06:49:32;;;;;;;18.20;16.50;;;27.80;99.90;;;;;;5120913;27;20464;-63
2021/07/13 06:51:58;;;;;;;17.60;15.77;;;27.90;99.90;;;;;;5117759;27;20207;-63
2021/07/13 06:54:24;;;;;;;18.50;16.17;;;28.00;99.90;;;;;;5113898;27;20278;-64
2021/07/13 06:56:49;;;;;;;17.70;16.03;;;28.10;99.90;;;;;;5098716;27;20243;-67
2021/07/13 06:59:15;;;;;;;16.27;14.70;;;28.20;99.90;;;;;;5111978;27;20420;-66
2021/07/13 07:01:41;;;;;;;17.33;15.63;;;28.30;99.90;;;;;;5097993;27;20214;-64
2021/07/13 07:04:06;;;;;;;16.10;14.57;;;28.40;99.90;;;;;;5096781;27;20601;-63
2021/07/13 07:06:32;;;;;;;18.87;16.90;;;28.50;99.90;;;;;;5099007;27;20807;-62
2021/07/13 07:08:58;;;;;;;15.87;14.37;;;28.50;99.90;;;;;;5115304;27;20187;-67
2021/07/13 07:11:24;;;;;;;17.93;15.50;;;28.60;99.90;;;;;;5096875;27;20359;-63
2021/07/13 07:13:49;;;;;;;17.83;16.03;;;28.70;99.90;;;;;;5114941;27;20791;-63
2021/07/13 07:16:15;;;;;;;16.53;15.03;;;28.80;99.90;;;;;;5116465;27;20277;-64
2021/07/13 07:18:40;;;;;;;16.23;14.73;;;28.90;99.90;;;;;;5098542;27;20184;-67
2021/07/13 07:21:06;;;;;;;17.03;15.10;;;29.00;99.90;;;;;;5108719;27;20243;-67
2021/07/13 07:23:32;;;;;;;16.23;14.80;;;29.10;99.90;;;;;;5109412;27;20267;-63
2021/07/13 07:25:57;;;;;;;16.57;14.87;;;29.10;99.90;;;;;;5115447;27;20365;-66
2021/07/13 07:28:23;;;;;;;17.27;15.63;;;29.20;99.90;;;;;;5120162;27;20188;-63
2021/07/13 07:30:49;;;;;;;17.30;15.70;;;29.30;99.90;;;;;;5112936;27;20239;-63
2021/07/13 07:33:15;;;;;;;17.53;15.80;;;29.30;99.90;;;;;;5134220;27;20512;-63
2021/07/13 07:35:41;;;;;;;16.47;15.00;;;29.40;99.90;;;;;;5134518;27;20683;-66
2021/07/13 07:38:07;;;;;;;16.10;14.50;;;29.50;99.90;;;;;;5115916;27;20184;-66
2021/07/13 07:40:32;;;;;;;17.03;15.37;;;29.60;99.90;;;;;;5131877;27;20756;-66
2021/07/13 07:42:59;;;;;;;19.17;17.37;;;29.60;99.90;;;;;;5133459;27;20227;-66
2021/07/13 07:45:26;;;;;;;26.20;23.40;;;29.70;99.90;;;;;;5132890;27;20765;-63
2021/07/13 07:47:52;;;;;;;15.90;14.60;;;29.80;99.90;;;;;;5112479;27;20416;-66
2021/07/13 07:50:19;;;;;;;15.57;14.20;;;29.90;99.90;;;;;;5133190;27;20822;-63
2021/07/13 07:52:46;;;;;;;16.23;14.83;;;30.00;99.90;;;;;;5131331;27;20477;-65
2021/07/13 07:55:13;;;;;;;16.13;14.53;;;30.00;99.90;;;;;;5130761;27;20898;-63
2021/07/13 07:57:39;;;;;;;16.60;15.00;;;30.10;99.90;;;;;;5129688;27;20722;-66
2021/07/13 08:00:08;;;;;;;17.17;15.67;;;30.20;99.90;;;;;;5130018;27;20498;-67
2021/07/13 08:02:34;;;;;;;15.20;13.70;;;30.20;99.90;;;;;;5129520;27;20432;-63
2021/07/13 08:05:00;;;;;;;16.97;15.27;;;30.30;99.90;;;;;;5111270;27;20490;-63
2021/07/13 08:07:27;;;;;;;15.70;14.40;;;30.40;99.90;;;;;;5129763;27;20178;-63
2021/07/13 08:09:52;;;;;;;15.43;13.83;;;30.50;99.90;;;;;;5131907;27;20730;-67
2021/07/13 08:12:18;;;;;;;18.27;14.80;;;30.60;99.90;;;;;;5110974;27;20725;-62
2021/07/13 08:14:44;;;;;;;16.13;14.43;;;30.60;99.90;;;;;;5129233;27;20852;-68
2021/07/13 08:17:10;;;;;;;14.87;13.37;;;30.70;99.90;;;;;;5128726;27;20191;-68
2021/07/13 08:19:38;;;;;;;16.27;14.67;;;30.80;99.90;;;;;;5129948;27;20278;-65
2021/07/13 08:22:08;;;;;;;15.10;13.80;;;30.80;99.90;;;;;;5111392;27;20180;-68
2021/07/13 08:24:35;;;;;;;15.77;14.37;;;30.90;99.90;;;;;;5129077;27;20837;-68
2021/07/13 08:27:01;;;;;;;15.70;14.50;;;31.00;99.90;;;;;;5111560;27;20444;-66
2021/07/13 08:29:27;;;;;;;15.83;14.53;;;31.10;99.90;;;;;;5128834;27;20488;-67
2021/07/13 08:31:56;;;;;;;15.63;14.33;;;31.10;99.90;;;;;;5126877;27;20455;-67
2021/07/13 08:34:29;;;;;;;15.97;14.37;;;31.20;99.90;;;;;;5130672;28;20226;-67
2021/07/13 08:36:56;;;;;;;16.47;15.07;;;31.30;99.90;;;;;;5111370;28;20871;-63
2021/07/13 08:39:22;;;;;;;16.87;15.37;;;31.30;99.90;;;;;;5129356;28;20468;-68
2021/07/13 08:41:48;;;;;;;20.73;18.93;;;31.40;99.90;;;;;;5129916;28;20979;-64
2021/07/13 08:44:13;;;;;;;20.90;19.00;;;31.50;99.90;;;;;;5127188;28;20190;-64
2021/07/13 08:46:43;;;;;;;19.80;18.10;;;31.50;99.90;;;;;;5107475;28;20879;-63
2021/07/13 08:49:11;;;;;;;17.50;16.03;;;31.60;99.90;;;;;;5131312;28;20187;-68
2021/07/13 08:51:37;;;;;;;18.97;17.17;;;31.70;99.90;;;;;;5131449;27;20782;-69
2021/07/13 08:54:04;;;;;;;18.37;16.77;;;31.80;99.90;;;;;;5131570;28;20437;-67
2021/07/13 08:56:32;;;;;;;20.80;18.90;;;31.80;99.90;;;;;;5111119;28;20438;-67
2021/07/13 08:58:58;;;;;;;19.43;17.40;;;31.90;99.90;;;;;;5132973;28;20473;-67
2021/07/13 09:01:24;;;;;;;19.13;17.37;;;32.00;99.90;;;;;;5112964;28;20979;-67
2021/07/13 09:03:53;;;;;;;20.37;18.53;;;32.10;99.90;;;;;;5113634;28;20187;-63
2021/07/13 09:06:18;;;;;;;21.13;19.20;;;32.10;99.90;;;;;;5133206;27;20699;-67
2021/07/13 09:08:44;;;;;;;19.40;17.40;;;32.20;99.90;;;;;;5133509;28;20502;-67
2021/07/13 09:11:16;;;;;;;19.13;17.53;;;32.20;99.90;;;;;;5131199;27;20211;-66
2021/07/13 09:14:03;;;;;;;21.23;19.30;;;32.20;99.90;;;;;;5132869;28;20451;-63
2021/07/13 09:16:30;;;;;;;20.07;18.17;;;32.30;99.90;;;;;;5130488;28;20442;-63
2021/07/13 09:18:58;;;;;;;19.37;17.77;;;32.30;99.90;;;;;;5133508;28;20425;-63
2021/07/13 09:21:33;;;;;;;18.57;17.07;;;32.30;99.90;;;;;;5130403;28;20511;-63
2021/07/13 09:24:07;;;;;;;18.63;16.93;;;32.40;99.90;;;;;;5107394;28;20458;-63
2021/07/13 09:26:41;;;;;;;19.67;17.90;;;32.40;99.90;;;;;;5127475;28;20662;-67
2021/07/13 09:29:09;;;;;;;19.30;17.67;;;32.40;99.90;;;;;;5127809;28;20426;-63
2021/07/13 09:31:35;;;;;;;21.40;19.10;;;32.40;99.90;;;;;;5110278;28;20999;-67
2021/07/13 09:34:00;;;;;;;20.47;18.67;;;32.50;99.90;;;;;;5128350;28;20423;-67
2021/07/13 09:36:26;;;;;;;21.03;19.23;;;32.50;99.90;;;;;;5130148;28;20691;-68
2021/07/13 09:38:54;;;;;;;18.90;17.20;;;32.60;99.90;;;;;;5131581;28;20243;-63
2021/07/13 09:41:31;;;;;;;19.53;17.90;;;32.60;99.50;;;;;;5131734;27;20195;-64
2021/07/13 09:44:10;;;;;;;19.13;17.53;;;32.60;99.30;;;;;;5134772;27;20438;-69
2021/07/13 09:46:37;;;;;;;20.07;18.23;;;32.60;99.40;;;;;;5135814;27;20458;-67
2021/07/13 09:49:17;;;;;;;20.40;18.70;;;32.60;99.20;;;;;;5135511;27;20427;-66
2021/07/13 09:51:56;;;;;;;20.50;18.60;;;32.70;99.30;;;;;;5132378;27;20997;-63
2021/07/13 09:54:36;;;;;;;20.13;18.20;;;32.80;99.40;;;;;;5131739;27;20455;-64
2021/07/13 09:57:07;;;;;;;19.47;17.87;;;32.80;99.30;;;;;;5132264;27;20439;-63
2021/07/13 09:59:33;;;;;;;19.57;17.70;;;32.90;99.10;;;;;;5131420;27;20450;-63
2021/07/13 10:02:04;;;;;;;21.13;18.90;;;33.00;99.30;;;;;;5112757;27;20476;-64
2021/07/13 10:04:31;;;;;;;19.63;18.00;;;33.10;98.90;;;;;;5141227;27;20483;-67
2021/07/13 10:07:00;;;;;;;20.67;18.73;;;33.10;98.20;;;;;;5132940;27;20439;-67
2021/07/13 10:09:29;;;;;;;19.53;17.83;;;33.10;97.80;;;;;;5131189;27;20443;-63
2021/07/13 10:11:56;;;;;;;19.40;17.60;;;33.30;98.30;;;;;;5131035;27;20435;-63
2021/07/13 10:14:22;;;;;;;18.37;16.77;;;33.30;97.60;;;;;;5133768;27;20422;-67
2021/07/13 10:16:49;;;;;;;20.40;18.80;;;33.30;97.40;;;;;;5131529;27;20430;-67
2021/07/13 10:19:14;;;;;;;20.87;18.90;;;33.40;97.30;;;;;;5130824;27;20940;-67
2021/07/13 10:21:42;;;;;;;20.13;18.27;;;33.30;97.50;;;;;;5130331;27;20446;-63
2021/07/13 10:24:07;;;;;;;20.50;18.40;;;33.40;97.10;;;;;;5130931;27;20194;-63
2021/07/13 10:26:53;;;;;;;19.67;18.10;;;33.40;97.40;;;;;;5132860;27;20881;-67
2021/07/13 10:29:33;;;;;;;19.63;17.83;;;33.50;97.50;;;;;;5132237;27;20282;-63
2021/07/13 10:32:27;;;;;;;20.27;18.37;;;33.50;97.00;;;;;;5131331;27;20819;-68
2021/07/13 10:34:53;;;;;;;20.17;18.57;;;33.60;97.00;;;;;;5131180;27;20418;-63
2021/07/13 10:37:27;;;;;;;20.07;18.27;;;33.60;96.50;;;;;;5130468;27;20779;-63
2021/07/13 10:39:54;;;;;;;17.80;16.40;;;33.60;97.10;;;;;;5129815;27;20787;-67
2021/07/13 10:42:42;;;;;;;17.73;16.03;;;33.70;97.00;;;;;;5132747;27;20438;-63
2021/07/13 10:45:18;;;;;;;19.57;17.90;;;33.70;94.70;;;;;;5131879;27;20479;-68
2021/07/13 10:48:04;;;;;;;18.90;17.40;;;33.70;94.70;;;;;;5121612;27;20431;-69
2021/07/13 10:50:30;;;;;;;19.13;16.80;;;33.70;95.00;;;;;;5131469;27;20459;-69
2021/07/13 10:53:03;;;;;;;19.20;17.43;;;33.80;95.10;;;;;;5116532;27;20435;-69
2021/07/13 10:55:35;;;;;;;20.50;18.67;;;33.80;95.10;;;;;;5114327;27;20699;-69
2021/07/13 10:58:13;;;;;;;18.87;17.07;;;33.80;95.10;;;;;;5115371;27;20935;-69
2021/07/13 11:00:44;;;;;;;19.00;17.43;;;33.80;94.40;;;;;;5126066;27;20462;-68
2021/07/13 11:03:30;;;;;;;18.30;16.93;;;33.80;94.70;;;;;;5133988;27;20435;-63
2021/07/13 11:06:03;;;;;;;17.90;16.40;;;33.80;95.00;;;;;;5129968;27;20509;-62
2021/07/13 11:08:41;;;;;;;16.80;15.30;;;33.80;95.20;;;;;;5132036;27;20964;-62
2021/07/13 11:11:18;;;;;;;17.40;16.10;;;33.90;94.30;;;;;;5117673;27;20434;-62
2021/07/13 11:14:05;;;;;;;17.83;16.30;;;33.90;94.10;;;;;;5128903;27;20436;-63
2021/07/13 11:16:31;;;;;;;17.40;15.80;;;33.90;94.40;;;;;;5125514;27;20446;-63
2021/07/13 11:18:59;;;;;;;17.87;16.37;;;34.00;93.30;;;;;;5131029;27;20420;-69
2021/07/13 11:21:35;;;;;;;19.50;17.40;;;34.00;93.50;;;;;;5130739;27;20560;-68
2021/07/13 11:24:04;;;;;;;18.80;17.00;;;34.00;93.50;;;;;;5119416;27;21001;-70
2021/07/13 11:26:31;;;;;;;19.07;17.27;;;34.10;93.40;;;;;;5111684;27;20482;-62
2021/07/13 11:29:01;;;;;;;18.77;16.90;;;34.10;93.20;;;;;;5126787;27;20431;-62
2021/07/13 11:31:32;;;;;;;18.50;16.80;;;34.10;93.20;;;;;;5129511;27;20450;-62
2021/07/13 11:34:00;;;;;;;17.57;15.87;;;34.20;94.00;;;;;;5126002;27;20737;-62
2021/07/13 11:36:39;;;;;;;16.80;15.20;;;34.20;93.00;;;;;;5129300;27;20791;-62
2021/07/13 11:39:07;;;;;;;17.63;16.13;;;34.20;92.90;;;;;;5127902;27;20950;-70
2021/07/13 11:41:34;;;;;;;16.30;14.90;;;34.20;93.00;;;;;;5131531;27;20443;-63
2021/07/13 11:44:03;;;;;;;17.20;15.43;;;34.30;92.70;;;;;;5109536;27;20432;-63
2021/07/13 11:46:34;;;;;;;16.67;15.10;;;34.30;92.70;;;;;;5132019;27;20474;-62
2021/07/13 11:49:09;;;;;;;15.43;13.97;;;34.40;92.00;;;;;;5131168;27;20514;-66
2021/07/13 11:51:39;;;;;;;16.17;14.47;;;34.40;92.10;;;;;;5113466;27;20442;-69
2021/07/13 11:54:14;;;;;;;17.33;15.93;;;34.50;92.20;;;;;;5130958;27;20430;-63
2021/07/13 11:56:45;;;;;;;15.00;13.63;;;34.50;91.90;;;;;;5132352;27;20497;-63
2021/07/13 11:59:15;;;;;;;16.80;15.40;;;34.50;92.10;;;;;;5128935;27;20539;-69
2021/07/13 12:01:40;;;;;;;15.73;14.53;;;34.60;91.50;;;;;;5130675;27;20438;-69
2021/07/13 12:04:12;;;;;;;15.70;14.40;;;34.60;91.50;;;;;;5107283;27;20432;-65
2021/07/13 12:06:39;;;;;;;13.47;12.43;;;34.60;91.20;;;;;;5130881;27;20695;-63
2021/07/13 12:09:11;;;;;;;14.80;13.40;;;34.60;90.80;;;;;;5129553;27;20832;-63
2021/07/13 12:11:43;;;;;;;15.60;14.20;;;34.60;91.10;;;;;;5108595;27;20457;-69
2021/07/13 12:14:17;;;;;;;13.23;12.03;;;34.70;91.00;;;;;;5130634;27;20518;-64
2021/07/13 12:16:43;;;;;;;14.63;13.23;;;34.80;90.60;;;;;;5132073;27;20816;-70
2021/07/13 12:19:13;;;;;;;13.33;11.93;;;34.70;90.30;;;;;;5112024;27;20518;-64
2021/07/13 12:21:50;;;;;;;13.20;12.20;;;34.80;89.10;;;;;;5131415;27;20490;-65
2021/07/13 12:24:19;;;;;;;14.60;13.30;;;34.80;89.20;;;;;;5130143;27;20505;-64
2021/07/13 12:26:51;;;;;;;14.30;13.00;;;34.90;88.40;;;;;;5131018;27;20841;-69
2021/07/13 12:29:44;;;;;;;14.23;12.77;;;34.90;89.00;;;;;;5104252;28;20432;-72
2021/07/13 12:32:18;;;;;;;15.90;13.00;;;35.00;88.70;;;;;;5090759;28;21012;-62
2021/07/13 12:34:45;;;;;;;14.87;13.33;;;35.00;88.40;;;;;;5126631;27;20498;-64